Weather at Piloto Civil N. Fernández Airport

Public forecast

Using degrees Celsius for public forecast. Weather courtesy of forecast.io.

Current aviation weather report (METAR) for Piloto Civil N. Fernández Airport

Retrieved 2021/12/02 09:00 UTC (40 minutes ago):

SAWG 020900Z 29006KT 9999 FEW030 04/M02 Q1010

Aviation forecast (TAF) for Piloto Civil N. Fernández Airport

Retrieved 2021/12/02 06:00 UTC (4 hours ago):

TAF SAWG 020500Z 0206/0306 25020G30KT CAVOK TX15/0219Z TN07/0210Z BECMG 0210/0212 9999 BKN030 BECMG 0300/0302 27015KT CAVOK